Time;durP1;ratioP1;P1;durP2;ratioP2;P2;SDS_P1;SDS_P2;PMS_P1;PMS_P2;Temp;Humidity;BMP_temperature;BMP_pressure;BME280_temperature;BME280_humidity;BME280_pressure;Samples;Min_cycle;Max_cycle;Signal;HPM_P1;HPM_P2
2024/01/27 00:02:03;;;;;;;10.23;2.17;;;;;;;15.37;39.78;103515.59;5050460;28;20017;-74
2024/01/27 00:04:31;;;;;;;6.77;1.50;;;;;;;15.31;40.13;103511.13;5050485;28;20029;-74
2024/01/27 00:06:56;;;;;;;12.70;2.00;;;;;;;15.90;38.85;103514.47;5052540;28;20032;-75
2024/01/27 00:09:22;;;;;;;5.53;1.87;;;;;;;15.44;39.41;103523.59;5051199;28;20358;-76
2024/01/27 00:11:47;;;;;;;7.63;2.10;;;;;;;15.62;39.40;103522.06;5050833;28;20415;-76
2024/01/27 00:14:13;;;;;;;11.53;1.93;;;;;;;16.26;37.82;103515.69;5050668;28;20119;-76
2024/01/27 00:16:38;;;;;;;11.87;1.90;;;;;;;16.18;37.84;103520.00;5051216;28;20087;-76
2024/01/27 00:19:03;;;;;;;5.67;1.83;;;;;;;15.33;39.40;103519.97;5051787;28;20096;-76
2024/01/27 00:21:29;;;;;;;8.13;3.10;;;;;;;15.96;39.17;103517.16;5051734;28;20068;-76
2024/01/27 00:24:00;;;;;;;9.07;1.70;;;;;;;15.31;39.83;103513.75;5049997;28;20021;-76
2024/01/27 00:26:25;;;;;;;5.03;1.60;;;;;;;14.88;40.66;103521.09;5051884;28;20040;-75
2024/01/27 00:28:51;;;;;;;8.43;1.77;;;;;;;15.46;39.80;103525.38;5046757;28;20389;-76
2024/01/27 00:31:16;;;;;;;16.90;1.90;;;;;;;15.63;39.27;103513.25;5045486;28;20063;-76
2024/01/27 00:33:42;;;;;;;7.23;1.60;;;;;;;16.08;38.75;103512.00;5066333;28;20098;-76
2024/01/27 00:36:07;;;;;;;9.63;2.40;;;;;;;16.08;39.06;103517.28;5050232;28;20044;-76
2024/01/27 00:38:32;;;;;;;13.23;2.97;;;;;;;15.89;38.46;103525.88;5048844;28;20016;-76
2024/01/27 00:40:58;;;;;;;6.70;1.60;;;;;;;16.05;38.48;103522.53;5050133;28;20025;-76
2024/01/27 00:43:23;;;;;;;12.70;1.83;;;;;;;15.64;39.06;103522.06;5050487;28;20051;-76
2024/01/27 00:45:48;;;;;;;10.97;1.13;;;;;;;15.17;39.99;103524.13;5045930;28;20037;-76
2024/01/27 00:48:14;;;;;;;16.43;1.77;;;;;;;15.03;40.05;103537.09;5031650;28;20036;-76
2024/01/27 00:50:39;;;;;;;10.70;1.60;;;;;;;14.88;40.81;103529.00;5039724;28;20076;-75
2024/01/27 00:53:05;;;;;;;8.00;1.60;;;;;;;14.84;40.47;103529.81;5049310;28;20480;-76
2024/01/27 00:55:31;;;;;;;4.50;1.93;;;;;;;14.98;40.58;103544.06;5050953;28;20127;-75
2024/01/27 00:57:56;;;;;;;12.23;2.17;;;;;;;14.96;40.55;103544.88;5049431;28;20431;-75
2024/01/27 01:00:21;;;;;;;17.00;1.73;;;;;;;15.31;39.73;103526.94;5051573;28;20036;-76
2024/01/27 01:02:47;;;;;;;10.77;2.13;;;;;;;15.70;39.40;103525.66;5050488;28;20686;-75
2024/01/27 01:05:12;;;;;;;14.17;1.73;;;;;;;14.59;40.96;103537.28;5050127;28;20028;-75
2024/01/27 01:07:38;;;;;;;8.33;2.00;;;;;;;14.64;41.73;103543.53;5050899;28;20431;-75
2024/01/27 01:10:04;;;;;;;8.73;1.50;;;;;;;14.23;41.94;103535.78;5049495;28;20056;-75
2024/01/27 01:12:29;;;;;;;8.73;1.90;;;;;;;15.60;39.59;103523.78;5048738;28;20079;-76
2024/01/27 01:14:55;;;;;;;5.47;1.23;;;;;;;15.90;39.18;103523.25;5050446;28;20371;-76
2024/01/27 01:17:20;;;;;;;5.07;1.63;;;;;;;15.56;39.31;103533.38;5046480;28;20485;-76
2024/01/27 01:19:45;;;;;;;8.40;2.00;;;;;;;15.97;38.19;103529.47;5041175;28;20047;-76
2024/01/27 01:22:11;;;;;;;6.80;1.87;;;;;;;16.35;37.57;103526.31;5046231;28;20041;-76
2024/01/27 01:24:36;;;;;;;5.80;1.40;;;;;;;15.54;38.53;103529.00;5055113;28;20488;-76
2024/01/27 01:27:02;;;;;;;9.20;1.63;;;;;;;15.74;38.75;103524.84;5048789;28;20631;-76
2024/01/27 01:29:35;;;;;;;5.50;1.70;;;;;;;15.21;39.16;103530.34;5049444;28;20017;-76
2024/01/27 01:32:02;;;;;;;13.75;1.92;;;;;;;14.65;40.56;103536.53;5049393;28;20136;-75
2024/01/27 01:34:29;;;;;;;10.83;1.67;;;;;;;15.32;39.44;103522.53;5049704;28;20074;-74
2024/01/27 01:36:54;;;;;;;12.03;1.57;;;;;;;15.34;39.59;103531.38;5050259;28;20029;-74
2024/01/27 01:39:20;;;;;;;5.97;1.67;;;;;;;15.48;39.88;103513.09;5050334;28;20031;-75
2024/01/27 01:41:45;;;;;;;11.47;1.20;;;;;;;15.86;38.05;103531.13;5049216;28;20037;-75
2024/01/27 01:44:11;;;;;;;6.30;1.50;;;;;;;14.68;40.39;103534.81;5048658;28;20037;-75
2024/01/27 01:46:36;;;;;;;8.70;1.10;;;;;;;16.28;37.41;103519.25;5048507;28;20362;-75
2024/01/27 01:49:02;;;;;;;5.63;1.30;;;;;;;15.42;39.32;103530.59;5047741;28;20029;-74
2024/01/27 01:51:31;;;;;;;6.10;1.27;;;;;;;15.95;37.99;103531.25;5050436;28;20064;-74
2024/01/27 01:53:58;;;;;;;14.83;1.93;;;;;;;15.99;37.98;103527.75;5044595;28;20397;-74
2024/01/27 01:56:24;;;;;;;12.47;1.33;;;;;;;15.44;38.63;103528.88;5040129;28;20106;-75
2024/01/27 01:58:50;;;;;;;10.90;2.37;;;;;;;15.46;38.77;103536.78;5049612;28;20048;-75
2024/01/27 02:01:18;;;;;;;20.13;2.63;;;;;;;15.56;38.75;103543.06;5044892;28;20476;-75
2024/01/27 02:03:56;;;;;;;8.70;1.43;;;;;;;15.85;37.81;103545.19;5028105;28;20551;-75
2024/01/27 02:06:22;;;;;;;2.67;0.90;;;;;;;15.35;38.88;103546.31;5036371;28;20056;-75
2024/01/27 02:08:47;;;;;;;12.00;1.77;;;;;;;15.71;37.95;103545.00;5046806;28;20499;-74
2024/01/27 02:11:13;;;;;;;10.33;1.60;;;;;;;15.70;38.27;103536.22;5048520;28;20025;-75
2024/01/27 02:13:38;;;;;;;7.37;1.43;;;;;;;15.56;37.99;103543.94;5048288;28;20496;-74
2024/01/27 02:16:04;;;;;;;12.40;1.10;;;;;;;15.47;37.95;103548.22;5047986;28;20412;-75
2024/01/27 02:18:30;;;;;;;6.23;1.33;;;;;;;15.28;38.60;103548.00;5049073;28;20037;-74
2024/01/27 02:20:55;;;;;;;15.50;2.00;;;;;;;15.51;38.35;103534.19;5048946;28;20028;-75
2024/01/27 02:23:20;;;;;;;6.07;1.23;;;;;;;15.76;38.20;103536.25;5048995;28;20477;-75
2024/01/27 02:25:46;;;;;;;4.90;1.37;;;;;;;15.54;38.27;103555.34;5048379;28;20033;-75
2024/01/27 02:28:13;;;;;;;10.33;1.97;;;;;;;15.34;39.01;103553.31;5049681;28;20056;-75
2024/01/27 02:30:38;;;;;;;20.43;1.33;;;;;;;14.79;39.65;103552.53;5043917;28;20060;-75
2024/01/27 02:33:04;;;;;;;6.10;1.30;;;;;;;15.80;37.90;103541.59;5044645;28;20119;-75
2024/01/27 02:35:30;;;;;;;18.97;1.93;;;;;;;15.63;38.05;103549.28;5049190;28;20159;-75
2024/01/27 02:37:55;;;;;;;10.80;1.73;;;;;;;15.12;39.34;103551.28;5044278;28;20491;-75
2024/01/27 02:40:21;;;;;;;5.73;1.10;;;;;;;15.29;38.90;103544.50;5030136;28;20503;-74
2024/01/27 02:42:46;;;;;;;2.60;0.97;;;;;;;15.16;39.06;103547.81;5046452;28;20066;-75
2024/01/27 02:45:12;;;;;;;8.10;1.13;;;;;;;14.79;40.47;103537.63;5048914;28;20033;-75
2024/01/27 02:47:37;;;;;;;8.63;1.10;;;;;;;14.80;39.68;103549.06;5049274;28;20041;-75
2024/01/27 02:50:03;;;;;;;7.93;1.37;;;;;;;15.63;38.20;103539.63;5028795;28;20154;-75
2024/01/27 02:52:32;;;;;;;1.90;1.00;;;;;;;15.59;38.42;103548.38;5040004;28;20033;-75
2024/01/27 02:54:58;;;;;;;5.67;2.23;;;;;;;15.03;39.26;103552.91;5045059;28;20120;-75
2024/01/27 02:57:23;;;;;;;10.67;1.60;;;;;;;15.54;38.44;103536.91;5047788;28;20104;-75
2024/01/27 02:59:49;;;;;;;4.83;1.20;;;;;;;15.69;38.14;103529.16;5044297;28;20037;-74
2024/01/27 03:02:15;;;;;;;14.73;2.37;;;;;;;15.41;38.88;103542.03;5040734;28;20044;-75
2024/01/27 03:04:40;;;;;;;17.03;2.47;;;;;;;15.17;39.03;103550.47;5047185;28;20285;-75
2024/01/27 03:07:06;;;;;;;4.30;1.30;;;;;;;15.36;38.87;103548.06;5044549;28;20059;-75
2024/01/27 03:09:32;;;;;;;7.70;1.80;;;;;;;15.35;38.70;103557.75;5060287;28;20017;-75
2024/01/27 03:11:57;;;;;;;11.17;3.10;;;;;;;15.59;37.85;103559.81;5048039;28;20039;-75
2024/01/27 03:14:23;;;;;;;6.87;2.30;;;;;;;15.23;38.73;103547.03;5048310;28;20067;-75
2024/01/27 03:16:48;;;;;;;5.27;1.53;;;;;;;15.03;38.90;103552.91;5051577;28;20506;-75
2024/01/27 03:19:14;;;;;;;6.57;2.33;;;;;;;14.71;39.35;103563.84;5052123;28;20158;-75
2024/01/27 03:21:39;;;;;;;8.80;2.33;;;;;;;15.28;38.52;103555.88;5052961;28;20381;-75
2024/01/27 03:24:05;;;;;;;3.93;1.70;;;;;;;15.17;38.50;103549.59;5053070;28;20040;-75
2024/01/27 03:26:30;;;;;;;7.80;2.67;;;;;;;14.63;39.63;103554.94;5050942;28;20024;-75
2024/01/27 03:28:55;;;;;;;8.20;2.23;;;;;;;14.97;38.88;103552.81;5051125;28;20159;-75
2024/01/27 03:31:21;;;;;;;8.60;2.47;;;;;;;15.35;38.53;103549.81;5051871;28;20040;-74
2024/01/27 03:33:47;;;;;;;13.10;3.33;;;;;;;15.05;39.02;103560.84;5051452;28;20100;-75
2024/01/27 03:36:13;;;;;;;9.70;2.77;;;;;;;15.12;39.05;103561.81;5051242;28;20052;-75
2024/01/27 03:38:40;;;;;;;10.70;3.33;;;;;;;15.20;38.48;103550.50;5051837;28;20054;-75
2024/01/27 03:41:06;;;;;;;12.40;3.30;;;;;;;15.01;39.24;103557.25;5051655;28;20025;-74
2024/01/27 03:43:33;;;;;;;11.43;3.87;;;;;;;15.03;38.52;103554.63;5067803;28;20041;-74
2024/01/27 03:45:58;;;;;;;16.43;3.30;;;;;;;14.76;39.54;103559.50;5052658;28;20025;-75
2024/01/27 03:48:24;;;;;;;11.67;3.40;;;;;;;14.13;41.26;103561.03;5049259;28;20044;-75
2024/01/27 03:50:49;;;;;;;10.37;3.17;;;;;;;14.54;40.27;103566.16;5050820;28;20063;-75
2024/01/27 03:53:15;;;;;;;11.43;4.10;;;;;;;14.78;40.08;103554.28;5051116;28;20116;-74
2024/01/27 03:55:40;;;;;;;17.87;4.20;;;;;;;13.53;42.22;103565.13;5051205;28;20029;-75
2024/01/27 03:58:06;;;;;;;11.93;3.80;;;;;;;14.75;40.21;103552.50;5047407;28;20034;-75
2024/01/27 04:00:33;;;;;;;13.03;4.33;;;;;;;15.15;39.20;103556.56;5035624;28;20029;-76
2024/01/27 04:02:59;;;;;;;10.73;4.53;;;;;;;13.93;41.30;103552.81;5050727;28;20095;-74
2024/01/27 04:05:25;;;;;;;17.00;5.40;;;;;;;14.21;41.02;103556.81;5052671;28;20352;-75
2024/01/27 04:07:51;;;;;;;18.27;5.77;;;;;;;13.92;41.27;103551.03;5049533;28;20626;-75
2024/01/27 04:10:17;;;;;;;16.80;5.47;;;;;;;14.31;41.00;103552.59;5051525;28;20517;-75
2024/01/27 04:12:43;;;;;;;16.17;5.37;;;;;;;14.04;41.14;103558.22;5050705;28;20056;-75
2024/01/27 04:15:09;;;;;;;14.90;4.97;;;;;;;14.08;41.76;103558.34;5049930;28;20090;-74
2024/01/27 04:17:35;;;;;;;22.70;6.00;;;;;;;13.85;41.52;103563.16;5051699;28;20179;-75
2024/01/27 04:20:00;;;;;;;13.30;5.53;;;;;;;13.66;42.03;103567.16;5050469;28;20662;-75
2024/01/27 04:22:26;;;;;;;15.87;5.57;;;;;;;14.54;40.55;103554.75;5051604;28;20025;-75
2024/01/27 04:24:51;;;;;;;16.20;6.10;;;;;;;13.60;42.43;103566.13;5051591;28;20397;-75
2024/01/27 04:27:16;;;;;;;33.20;6.27;;;;;;;13.71;42.47;103570.78;5049635;28;20044;-75
2024/01/27 04:29:42;;;;;;;12.30;5.30;;;;;;;13.99;42.12;103568.69;5049731;28;20033;-75
2024/01/27 04:32:07;;;;;;;15.27;6.07;;;;;;;13.73;42.69;103566.41;5050530;28;20119;-75
2024/01/27 04:34:32;;;;;;;21.07;5.87;;;;;;;13.36;43.28;103563.00;5050090;28;20041;-76
2024/01/27 04:36:58;;;;;;;16.00;5.70;;;;;;;14.04;41.67;103553.88;5049905;28;20025;-75
2024/01/27 04:39:23;;;;;;;20.83;5.63;;;;;;;14.20;41.79;103551.53;5049552;28;20093;-75
2024/01/27 04:41:49;;;;;;;20.60;6.53;;;;;;;13.97;41.60;103544.13;5049944;28;20032;-75
2024/01/27 04:44:14;;;;;;;24.33;6.27;;;;;;;13.80;42.43;103553.41;5049827;28;20550;-74
2024/01/27 04:46:39;;;;;;;20.63;5.57;;;;;;;14.61;40.68;103559.25;5049626;28;20123;-75
2024/01/27 04:49:05;;;;;;;20.00;6.40;;;;;;;14.27;41.13;103547.25;5051334;28;20033;-75
2024/01/27 04:51:30;;;;;;;16.93;6.57;;;;;;;14.33;41.25;103548.25;5050446;28;20043;-75
2024/01/27 04:53:56;;;;;;;14.17;5.87;;;;;;;13.59;42.51;103554.75;5049984;28;20060;-75
2024/01/27 04:56:21;;;;;;;20.47;5.70;;;;;;;14.22;41.38;103549.81;5049656;28;20032;-75
2024/01/27 04:58:46;;;;;;;17.03;6.03;;;;;;;13.14;42.82;103566.00;5050223;28;20519;-75
2024/01/27 05:01:12;;;;;;;13.73;6.03;;;;;;;13.64;42.36;103558.38;5051305;28;20037;-75
2024/01/27 05:03:37;;;;;;;17.33;7.00;;;;;;;13.80;42.10;103558.66;5049641;28;20503;-75
2024/01/27 05:06:03;;;;;;;12.30;5.07;;;;;;;13.27;42.99;103560.16;5048970;28;20025;-75
2024/01/27 05:08:32;;;;;;;9.23;5.27;;;;;;;13.76;42.39;103559.47;5049769;28;20035;-75
2024/01/27 05:10:57;;;;;;;14.80;6.60;;;;;;;13.93;41.96;103558.06;5049435;28;20063;-75
2024/01/27 05:13:23;;;;;;;9.40;5.50;;;;;;;14.02;41.78;103558.22;5049693;28;20044;-75
2024/01/27 05:15:49;;;;;;;18.63;6.33;;;;;;;13.82;41.93;103559.56;5050440;28;20028;-76
2024/01/27 05:18:15;;;;;;;13.10;6.67;;;;;;;13.89;41.71;103567.63;5045885;28;20064;-75
2024/01/27 05:20:40;;;;;;;12.80;6.13;;;;;;;14.26;40.94;103572.69;5029533;28;20458;-75
2024/01/27 05:23:05;;;;;;;18.03;5.93;;;;;;;12.73;44.31;103572.03;5039932;28;20035;-75
2024/01/27 05:25:31;;;;;;;12.23;6.07;;;;;;;13.50;42.80;103560.69;5049480;28;20405;-75
2024/01/27 05:27:56;;;;;;;40.50;7.30;;;;;;;13.37;43.01;103571.81;5050690;28;20037;-75
2024/01/27 05:30:21;;;;;;;12.83;5.67;;;;;;;13.31;43.10;103567.28;5048942;28;20124;-75
2024/01/27 05:32:47;;;;;;;16.40;5.60;;;;;;;13.86;41.87;103553.50;5049892;28;20036;-75
2024/01/27 05:35:12;;;;;;;20.53;6.43;;;;;;;14.05;41.23;103553.03;5049995;28;20443;-75
2024/01/27 05:37:39;;;;;;;11.33;7.13;;;;;;;14.01;41.33;103556.47;5051215;28;20067;-75
2024/01/27 05:40:06;;;;;;;9.90;6.27;;;;;;;13.70;42.34;103561.09;5048647;28;20033;-75
2024/01/27 05:42:32;;;;;;;18.53;7.30;;;;;;;13.85;41.88;103565.78;5048859;28;20036;-75
2024/01/27 05:44:57;;;;;;;10.97;6.87;;;;;;;14.17;41.27;103562.00;5049583;28;20037;-75
2024/01/27 05:47:22;;;;;;;22.83;8.50;;;;;;;13.67;42.20;103576.81;5045281;28;20120;-75
2024/01/27 05:49:48;;;;;;;13.90;6.97;;;;;;;13.78;41.72;103573.50;5046743;28;20063;-75
2024/01/27 05:52:13;;;;;;;11.83;7.20;;;;;;;14.31;40.85;103565.75;5049090;28;20028;-75
2024/01/27 05:54:41;;;;;;;11.33;6.53;;;;;;;13.76;41.56;103562.09;5048933;28;20033;-75
2024/01/27 05:57:06;;;;;;;15.97;6.37;;;;;;;13.79;42.04;103559.50;5050036;28;20049;-75
2024/01/27 05:59:32;;;;;;;17.13;7.63;;;;;;;13.62;42.42;103557.44;5048852;28;20033;-75
2024/01/27 06:01:57;;;;;;;17.53;7.17;;;;;;;14.58;40.00;103553.94;5049232;28;20082;-75
2024/01/27 06:04:23;;;;;;;16.33;6.97;;;;;;;14.70;39.68;103563.78;5049113;28;20067;-76
2024/01/27 06:06:48;;;;;;;19.10;6.90;;;;;;;14.60;40.39;103549.56;5049821;28;20033;-76
2024/01/27 06:09:14;;;;;;;17.63;7.30;;;;;;;15.09;38.93;103547.72;5045040;28;20037;-75
2024/01/27 06:11:39;;;;;;;22.37;6.90;;;;;;;14.43;40.22;103539.66;5030490;28;20021;-75
2024/01/27 06:14:06;;;;;;;13.13;6.40;;;;;;;14.53;39.90;103535.41;5050596;28;20130;-75
2024/01/27 06:16:31;;;;;;;19.03;6.63;;;;;;;14.63;39.91;103546.13;5048253;28;20032;-75
2024/01/27 06:18:57;;;;;;;19.70;7.03;;;;;;;14.35;40.51;103549.16;5048913;28;20036;-75
2024/01/27 06:21:22;;;;;;;21.07;7.03;;;;;;;14.64;40.19;103551.41;5048143;28;20037;-75
2024/01/27 06:23:48;;;;;;;14.40;6.47;;;;;;;14.45;40.17;103552.81;5049604;28;20091;-75
2024/01/27 06:26:13;;;;;;;19.60;7.17;;;;;;;14.51;40.08;103559.97;5049311;28;20056;-76
2024/01/27 06:28:39;;;;;;;15.73;7.23;;;;;;;14.05;40.58;103558.28;5048991;28;20039;-76
2024/01/27 06:31:05;;;;;;;15.00;7.23;;;;;;;14.11;40.91;103559.25;5050151;28;20098;-76
2024/01/27 06:33:31;;;;;;;16.87;7.27;;;;;;;13.83;40.77;103558.72;5047975;28;20036;-76
2024/01/27 06:35:57;;;;;;;15.00;6.60;;;;;;;14.33;40.29;103560.50;5047911;28;20481;-75
2024/01/27 06:38:22;;;;;;;13.43;7.20;;;;;;;13.80;41.00;103558.66;5048933;28;20037;-75
2024/01/27 06:40:48;;;;;;;28.23;7.60;;;;;;;13.51;42.06;103566.84;5049671;28;20365;-76
2024/01/27 06:43:14;;;;;;;19.67;7.40;;;;;;;13.28;42.44;103582.94;5048180;28;20396;-77
2024/01/27 06:45:40;;;;;;;16.83;7.50;;;;;;;13.37;42.75;103572.69;5047813;28;20158;-76
2024/01/27 06:48:06;;;;;;;14.43;6.53;;;;;;;14.02;41.25;103578.38;5049595;28;20032;-75
2024/01/27 06:50:32;;;;;;;17.17;7.10;;;;;;;13.45;42.88;103585.09;5051000;28;20060;-76
2024/01/27 06:52:57;;;;;;;16.47;7.73;;;;;;;13.55;42.53;103584.44;5052806;28;20025;-75
2024/01/27 06:55:23;;;;;;;20.03;8.40;;;;;;;13.35;43.37;103578.72;5052259;28;20037;-76
2024/01/27 06:57:48;;;;;;;22.53;8.00;;;;;;;13.36;43.80;103575.28;5050906;28;20072;-76
2024/01/27 07:00:14;;;;;;;17.53;7.13;;;;;;;12.98;43.65;103578.78;5051928;28;20067;-76
2024/01/27 07:02:43;;;;;;;22.30;7.63;;;;;;;13.27;44.63;103575.94;5052074;28;20040;-76
2024/01/27 07:05:09;;;;;;;19.20;7.87;;;;;;;13.63;43.10;103580.22;5067989;28;20090;-75
2024/01/27 07:07:34;;;;;;;22.37;7.30;;;;;;;13.49;43.25;103582.56;5052751;28;20488;-75
2024/01/27 07:10:00;;;;;;;18.67;7.07;;;;;;;13.89;42.96;103588.66;5053827;28;20492;-76
2024/01/27 07:12:25;;;;;;;14.87;7.50;;;;;;;13.99;42.19;103576.56;5052271;28;20032;-76
2024/01/27 07:14:52;;;;;;;14.77;7.87;;;;;;;13.37;43.38;103588.44;5052460;28;20043;-76
2024/01/27 07:17:17;;;;;;;11.07;7.40;;;;;;;13.35;43.54;103590.16;5053019;28;20052;-75
2024/01/27 07:19:43;;;;;;;15.00;6.97;;;;;;;13.79;42.70;103585.81;5050127;28;20028;-75
2024/01/27 07:22:08;;;;;;;22.90;9.07;;;;;;;14.34;41.64;103580.72;5051781;28;20068;-76
2024/01/27 07:24:34;;;;;;;13.67;7.03;;;;;;;14.03;42.12;103575.75;5051314;28;20032;-76
2024/01/27 07:27:00;;;;;;;24.10;9.27;;;;;;;13.53;43.42;103583.50;5051860;28;20025;-75
2024/01/27 07:29:26;;;;;;;22.67;8.27;;;;;;;13.18;43.72;103599.34;5050813;28;20033;-76
2024/01/27 07:31:51;;;;;;;14.90;7.17;;;;;;;13.38;43.88;103594.56;5052149;28;20052;-75
2024/01/27 07:34:17;;;;;;;13.23;7.27;;;;;;;13.57;43.22;103585.34;5050976;28;20025;-76
2024/01/27 07:36:43;;;;;;;12.03;6.43;;;;;;;13.55;42.79;103587.94;5051930;28;20096;-76
2024/01/27 07:39:09;;;;;;;20.47;7.33;;;;;;;14.68;40.65;103587.47;5051018;28;20025;-76
2024/01/27 07:41:34;;;;;;;15.90;7.63;;;;;;;14.36;41.22;103585.13;5048872;28;20089;-75
2024/01/27 07:44:10;;;;;;;27.90;7.27;;;;;;;13.26;43.86;103589.91;5050132;28;20468;-76
2024/01/27 07:46:36;;;;;;;17.47;7.93;;;;;;;13.74;42.52;103585.72;5048097;28;20123;-76
2024/01/27 07:49:02;;;;;;;13.13;7.07;;;;;;;13.98;41.59;103577.41;5050022;28;20382;-76
2024/01/27 07:51:30;;;;;;;20.67;8.77;;;;;;;13.87;42.34;103579.81;5062816;28;20025;-75
2024/01/27 07:53:56;;;;;;;17.10;9.90;;;;;;;14.31;41.00;103573.63;5051167;28;20492;-76
2024/01/27 07:56:21;;;;;;;12.57;7.70;;;;;;;13.39;43.41;103586.75;5051168;28;20025;-75
2024/01/27 07:58:47;;;;;;;21.30;7.30;;;;;;;13.99;42.24;103583.56;5051862;28;20029;-75
2024/01/27 08:01:16;;;;;;;17.23;8.90;;;;;;;13.55;42.99;103587.94;5049715;28;20075;-76
2024/01/27 08:03:42;;;;;;;16.93;8.03;;;;;;;13.34;43.66;103592.69;5050123;28;20025;-76
2024/01/27 08:06:11;;;;;;;15.27;7.90;;;;;;;13.89;42.66;103587.78;5050262;28;20374;-76
2024/01/27 08:08:36;;;;;;;17.97;8.30;;;;;;;13.58;42.50;103584.50;5049997;28;20036;-76
2024/01/27 08:11:02;;;;;;;19.43;8.67;;;;;;;13.45;42.49;103585.09;5051567;28;20513;-76
2024/01/27 08:13:27;;;;;;;18.93;8.07;;;;;;;13.72;41.86;103590.94;5051891;28;20021;-76
2024/01/27 08:15:52;;;;;;;18.13;7.93;;;;;;;12.92;43.26;103583.00;5050736;28;20462;-77
2024/01/27 08:18:18;;;;;;;16.10;7.40;;;;;;;13.59;42.45;103583.66;5050690;28;20021;-77
2024/01/27 08:20:43;;;;;;;16.13;7.60;;;;;;;14.21;40.94;103590.13;5049705;28;20040;-74
2024/01/27 08:23:09;;;;;;;16.27;7.00;;;;;;;13.23;42.88;103600.34;5050261;28;20054;-75
2024/01/27 08:25:34;;;;;;;26.37;9.47;;;;;;;12.24;44.81;103600.53;5049174;28;20033;-74
2024/01/27 08:28:00;;;;;;;18.80;9.60;;;;;;;13.27;42.90;103598.66;5048004;28;20419;-74
2024/01/27 08:30:25;;;;;;;17.03;8.27;;;;;;;13.45;42.35;103600.84;5049853;28;20029;-75
2024/01/27 08:32:50;;;;;;;24.03;9.83;;;;;;;13.40;42.59;103604.25;5050128;28;20021;-76
2024/01/27 08:35:16;;;;;;;15.27;8.60;;;;;;;13.16;43.18;103619.41;5050127;28;20377;-76
2024/01/27 08:37:41;;;;;;;12.93;7.47;;;;;;;12.99;43.52;103617.28;5050326;28;20037;-74
2024/01/27 08:40:08;;;;;;;23.30;11.00;;;;;;;12.53;45.02;103621.41;5049807;28;20067;-75
2024/01/27 08:42:33;;;;;;;16.80;8.33;;;;;;;13.49;43.14;103618.44;5049301;28;20112;-75
2024/01/27 08:44:59;;;;;;;20.77;8.90;;;;;;;13.56;42.89;103620.38;5051979;28;20433;-75
2024/01/27 08:47:24;;;;;;;18.17;8.17;;;;;;;13.66;43.03;103616.22;5050431;28;20048;-75
2024/01/27 08:49:49;;;;;;;21.97;8.87;;;;;;;13.96;42.01;103615.97;5049378;28;20071;-75
2024/01/27 08:52:15;;;;;;;19.33;9.30;;;;;;;13.70;42.68;103613.66;5047111;28;20053;-75
2024/01/27 08:54:40;;;;;;;21.70;7.83;;;;;;;13.17;44.19;103623.84;5029770;28;20405;-74
2024/01/27 08:57:06;;;;;;;16.53;8.53;;;;;;;12.35;45.85;103633.16;5045262;28;20039;-74
2024/01/27 08:59:32;;;;;;;18.83;8.73;;;;;;;13.65;42.95;103620.56;5049443;28;20435;-75
2024/01/27 09:01:57;;;;;;;19.20;9.90;;;;;;;14.61;41.22;103617.16;5050203;28;20032;-75
2024/01/27 09:04:22;;;;;;;17.00;9.13;;;;;;;14.81;41.06;103611.38;5051057;28;20064;-75
2024/01/27 09:06:48;;;;;;;31.17;9.23;;;;;;;15.07;40.75;103607.41;5049305;28;20078;-75
2024/01/27 09:09:13;;;;;;;20.40;8.47;;;;;;;14.69;41.30;103612.94;5050073;28;20032;-74
2024/01/27 09:11:38;;;;;;;18.00;8.23;;;;;;;14.83;41.40;103607.03;5049156;28;20119;-75
2024/01/27 09:14:07;;;;;;;19.37;8.10;;;;;;;14.97;41.38;103621.28;5049289;28;20029;-75
2024/01/27 09:16:32;;;;;;;18.37;9.60;;;;;;;14.59;41.75;103624.16;5049125;28;20032;-74
2024/01/27 09:18:57;;;;;;;20.23;7.70;;;;;;;14.00;43.12;103630.03;5049306;28;20017;-75
2024/01/27 09:21:28;;;;;;;23.33;8.70;;;;;;;14.68;42.13;103633.97;5050380;28;20047;-75
2024/01/27 09:23:56;;;;;;;20.63;9.03;;;;;;;14.58;41.98;103628.50;5048321;28;20029;-75
2024/01/27 09:26:22;;;;;;;17.20;8.70;;;;;;;14.90;41.18;103636.09;5047608;28;20021;-75
2024/01/27 09:28:54;;;;;;;20.93;9.17;;;;;;;15.18;41.02;103640.91;5047486;28;20112;-75
2024/01/27 09:31:21;;;;;;;26.03;9.90;;;;;;;15.01;41.27;103633.63;5049158;28;20025;-75
2024/01/27 09:33:51;;;;;;;21.70;8.53;;;;;;;15.86;39.94;103631.34;5050412;28;20035;-75
2024/01/27 09:36:17;;;;;;;24.40;8.93;;;;;;;14.91;41.34;103643.16;5049109;28;20025;-73
2024/01/27 09:38:42;;;;;;;19.77;7.90;;;;;;;14.97;41.72;103646.75;5049337;28;20036;-73
2024/01/27 09:41:09;;;;;;;22.83;8.30;;;;;;;14.23;43.33;103647.19;5049832;28;20061;-74
2024/01/27 09:43:37;;;;;;;14.50;8.27;;;;;;;14.24;43.45;103637.53;5048164;28;20085;-74
2024/01/27 09:46:02;;;;;;;20.60;9.47;;;;;;;15.82;40.09;103645.38;5064903;28;20055;-74
2024/01/27 09:48:29;;;;;;;17.90;8.27;;;;;;;15.75;40.45;103642.59;5050398;28;20032;-74
2024/01/27 09:50:58;;;;;;;28.33;8.70;;;;;;;16.28;39.69;103656.47;5049131;28;20055;-74
2024/01/27 09:53:23;;;;;;;19.87;9.47;;;;;;;15.99;39.87;103662.31;5049308;28;20021;-74
2024/01/27 09:55:50;;;;;;;16.47;10.40;;;;;;;15.71;40.20;103664.53;5049881;28;20035;-74
2024/01/27 09:58:15;;;;;;;28.43;9.40;;;;;;;15.28;41.42;103663.94;5049940;28;20028;-74
2024/01/27 10:00:41;;;;;;;26.03;8.70;;;;;;;14.67;42.95;103667.31;5047656;28;20062;-74
2024/01/27 10:03:08;;;;;;;21.20;8.90;;;;;;;15.52;41.34;103673.94;5048517;28;20021;-74
2024/01/27 10:05:34;;;;;;;16.43;7.20;;;;;;;15.39;41.71;103651.78;5049996;28;20024;-74
2024/01/27 10:08:00;;;;;;;22.13;9.10;;;;;;;15.98;40.54;103660.53;5049335;28;20021;-74
2024/01/27 10:10:25;;;;;;;18.83;8.13;;;;;;;16.31;40.51;103667.06;5048293;28;20515;-74
2024/01/27 10:12:53;;;;;;;25.23;9.47;;;;;;;17.23;39.04;103672.31;5047922;28;20039;-74
2024/01/27 10:15:22;;;;;;;21.07;8.57;;;;;;;17.15;38.83;103667.84;5049363;28;20138;-74
2024/01/27 10:17:48;;;;;;;20.57;8.43;;;;;;;17.27;38.79;103671.44;5048268;28;20166;-74
2024/01/27 10:20:15;;;;;;;21.23;7.53;;;;;;;18.31;36.92;103671.94;5050184;28;20065;-75
2024/01/27 10:22:42;;;;;;;15.73;8.70;;;;;;;18.51;37.32;103668.47;5046690;28;20388;-74
2024/01/27 10:25:08;;;;;;;15.00;7.00;;;;;;;18.12;36.67;103674.56;5048792;28;20052;-74
2024/01/27 10:27:34;;;;;;;19.63;6.43;;;;;;;18.02;37.96;103680.69;5051439;28;20099;-74
2024/01/27 10:29:59;;;;;;;16.13;6.30;;;;;;;17.44;38.02;103674.19;5052615;28;20455;-75
2024/01/27 10:32:25;;;;;;;18.40;6.77;;;;;;;18.33;37.42;103666.66;5051759;28;20559;-75
2024/01/27 10:35:11;;;;;;;9.13;5.33;;;;;;;19.31;35.29;103665.84;5053206;28;20079;-74
2024/01/27 10:37:37;;;;;;;14.20;5.73;;;;;;;19.37;35.90;103663.19;5053202;28;20048;-74
2024/01/27 10:40:10;;;;;;;16.60;6.80;;;;;;;18.37;36.55;103665.78;5052738;28;20028;-74
2024/01/27 10:42:37;;;;;;;7.80;4.13;;;;;;;17.50;38.81;103681.28;5047660;28;20030;-74
2024/01/27 10:45:03;;;;;;;12.37;4.50;;;;;;;18.08;38.28;103672.78;5040917;28;20429;-74
2024/01/27 10:47:32;;;;;;;9.37;5.20;;;;;;;18.43;37.20;103666.69;5052366;28;20048;-75
2024/01/27 10:50:00;;;;;;;10.67;4.60;;;;;;;17.10;38.80;103671.34;5051280;28;20120;-74
2024/01/27 10:52:32;;;;;;;12.83;4.63;;;;;;;18.31;37.88;103677.25;5053408;28;20056;-74
2024/01/27 10:55:07;;;;;;;10.77;3.88;;;;;;;18.11;36.83;103680.72;5052353;28;20108;-74
2024/01/27 10:57:37;;;;;;;12.07;4.13;;;;;;;17.66;38.60;103676.97;5048016;28;20040;-74
2024/01/27 11:00:09;;;;;;;9.13;3.67;;;;;;;18.65;35.54;103664.06;5045033;28;20032;-74
2024/01/27 11:02:35;;;;;;;13.23;4.38;;;;;;;18.75;36.49;103672.91;5047634;28;20033;-74
2024/01/27 11:05:04;;;;;;;17.07;4.10;;;;;;;18.31;36.54;103670.22;5046512;28;20032;-74
2024/01/27 11:07:32;;;;;;;9.27;3.97;;;;;;;19.13;35.93;103662.31;5051644;28;20029;-73
2024/01/27 11:09:58;;;;;;;9.50;3.07;;;;;;;18.94;36.08;103652.63;5052946;28;20029;-74
2024/01/27 11:12:24;;;;;;;11.17;3.60;;;;;;;19.14;35.91;103661.44;5053210;28;20122;-74
2024/01/27 11:14:51;;;;;;;8.50;3.23;;;;;;;18.02;36.95;103653.34;5051731;28;20048;-74